seohosting.com alexa rank chart, seohosting.com alexa rank daily changes

seohosting.com alexa rank chart, seohosting.com alexa rank daily changes

seohosting.com
Actual rank:
833 307

RANK HISTORY

Date Rank Diff
2017/05/29 833 307 -10 819
2017/05/28 844 126 -9 515
2017/05/27 853 641 -124 083
2017/05/26 977 724 +14 614
2017/05/25 963 110 -33 210
2017/05/18 996 320 +24 105
2017/05/17 972 215 -22 124
2017/05/15 994 339 +68 914
2017/05/14 925 425 -6 027
2017/05/13 931 452 +15 101
2017/05/12 916 351 +7 690
2017/05/11 908 661 +47 515
2017/05/10 861 146 -9 655
2017/05/09 870 801 -65 950
2017/05/08 936 751 -4 072
2017/05/07 940 823 +11 642
2017/05/06 929 181 -35 057
2017/05/05 964 238 -29 135
2017/05/04 993 373 +4 069
2017/04/23 989 304 +12 715
2017/04/16 976 589 +39 809
2017/04/14 936 780 -25 525
2017/04/13 962 305 -32 130
2017/04/12 994 435 +50 285
2017/04/11 944 150 -48 451
2017/04/10 992 601 +28 037
2017/04/09 964 564 +143 037
2017/04/08 821 527 +86 341
2017/04/07 735 186 +25 098
2017/04/06 710 088 +23 514
2017/04/05 686 574 +13 440
2017/04/04 673 134 +67 627
2017/04/03 605 507 +12 695
2017/04/02 592 812 +9 757
2017/04/01 583 055 +8 518
2017/03/31 574 537 +11 954
2017/03/30 562 583

WIDGET FOR YOUR SITE

DOMAINS WITH THE NEAREST RANK

Domain Rank
usedipper.com 833 302
resa-mellan.se 833 303
ieasy5.com 833 304
tokyo-street-style.com 833 305
kineticww.com 833 306
seohosting.com 833 307
tehnolait.ru 833 308
geninsindia.com 833 309
cybermall.gr 833 310
dislo.com 833 311
we-share-everything.com 833 312

DOMAINS WITH THE NEAREST RANK BY TLD .com

Domain Rank
waywithwordsjobs.com 833 300
usedipper.com 833 302
ieasy5.com 833 304
tokyo-street-style.com 833 305
kineticww.com 833 306
seohosting.com 833 307
geninsindia.com 833 309
dislo.com 833 311
we-share-everything.com 833 312
patriotpowergenerator.com 833 313
kaigai-toraripi.com 833 314